KAPA/APA METAR and TAF weather

Enter ICAO airport designator
Station Type Date Time Source
KAPA METAR 2018/12/13 15:53 UTC NOAA

KAPA 131553Z 35003KT 10SM FEW080 M02/M13 A3022 RMK AO2 SLP258 T10171133


Station Type Date Time Source
KAPA Decoded METAR 2018/12/13 15:53 UTC NOAA

DENVER CENTENNIAL AIRPORT, CO, United States (KAPA) 39-34N 104-51W 1775M
Dec 13, 2018 - 10:53 AM EST / 2018.12.13 1553 UTC
Wind: from the N (350 degrees) at 3 MPH (3 KT):0
Visibility: 10 mile(s):0
Sky conditions: mostly clear
Temperature: 28.9 F (-1.7 C)
Dew Point: 8.1 F (-13.3 C)
Relative Humidity: 40%
Pressure (altimeter): 30.22 in. Hg (1023 hPa)
ob: KAPA 131553Z 35003KT 10SM FEW080 M02/M13 A3022 RMK AO2 SLP258 T10171133
cycle: 16

Station Type Date Time Source
KAPA TAF 2018/12/13 12:22 UTC NOAA

TAF KAPA 131120Z 1312/1412 35015KT P6SM BKN060
FM131400 33008KT P6SM FEW060 SCT150
FM132000 36006KT P6SM FEW150
FM132200 04006KT P6SM FEW250
FM132300 10005KT P6SM FEW250
FM140100 13005KT P6SM FEW250


Example: see airport list